sensor_id;sensor_type;location;lat;lon;timestamp;P1;durP1;ratioP1;P2;durP2;ratioP2
24161;SDS011;12318;51.262;7.066;2022-11-03T00:01:53;11.77;;;2.88;;
24161;SDS011;12318;51.262;7.066;2022-11-03T00:04:20;16.45;;;2.65;;
24161;SDS011;12318;51.262;7.066;2022-11-03T00:06:48;15.68;;;2.80;;
24161;SDS011;12318;51.262;7.066;2022-11-03T00:09:15;11.60;;;2.60;;
24161;SDS011;12318;51.262;7.066;2022-11-03T00:11:42;17.98;;;3.08;;
24161;SDS011;12318;51.262;7.066;2022-11-03T00:14:09;21.00;;;3.65;;
24161;SDS011;12318;51.262;7.066;2022-11-03T00:16:36;14.38;;;2.80;;
24161;SDS011;12318;51.262;7.066;2022-11-03T00:19:03;18.48;;;3.72;;
24161;SDS011;12318;51.262;7.066;2022-11-03T00:21:29;13.95;;;2.75;;
24161;SDS011;12318;51.262;7.066;2022-11-03T00:23:56;12.63;;;2.58;;
24161;SDS011;12318;51.262;7.066;2022-11-03T00:26:25;15.73;;;2.97;;
24161;SDS011;12318;51.262;7.066;2022-11-03T00:28:56;14.52;;;2.78;;
24161;SDS011;12318;51.262;7.066;2022-11-03T00:31:27;18.40;;;3.28;;
24161;SDS011;12318;51.262;7.066;2022-11-03T00:33:54;16.83;;;3.22;;
24161;SDS011;12318;51.262;7.066;2022-11-03T00:36:22;16.92;;;2.60;;
24161;SDS011;12318;51.262;7.066;2022-11-03T00:38:51;19.50;;;3.38;;
24161;SDS011;12318;51.262;7.066;2022-11-03T00:41:18;19.48;;;3.30;;
24161;SDS011;12318;51.262;7.066;2022-11-03T00:43:45;13.88;;;3.15;;
24161;SDS011;12318;51.262;7.066;2022-11-03T00:46:11;14.23;;;3.15;;
24161;SDS011;12318;51.262;7.066;2022-11-03T00:48:38;16.05;;;3.83;;
24161;SDS011;12318;51.262;7.066;2022-11-03T00:56:13;20.75;;;3.45;;
24161;SDS011;12318;51.262;7.066;2022-11-03T00:58:41;17.77;;;3.08;;
24161;SDS011;12318;51.262;7.066;2022-11-03T01:03:38;13.90;;;2.95;;
24161;SDS011;12318;51.262;7.066;2022-11-03T01:06:07;18.75;;;3.03;;
24161;SDS011;12318;51.262;7.066;2022-11-03T01:08:52;16.00;;;2.70;;
24161;SDS011;12318;51.262;7.066;2022-11-03T01:11:20;15.13;;;3.00;;
24161;SDS011;12318;51.262;7.066;2022-11-03T01:14:07;17.45;;;3.63;;
24161;SDS011;12318;51.262;7.066;2022-11-03T01:16:37;16.45;;;3.25;;
24161;SDS011;12318;51.262;7.066;2022-11-03T01:19:03;19.95;;;3.35;;
24161;SDS011;12318;51.262;7.066;2022-11-03T01:21:29;16.35;;;3.13;;
24161;SDS011;12318;51.262;7.066;2022-11-03T01:23:54;19.67;;;3.05;;
24161;SDS011;12318;51.262;7.066;2022-11-03T01:26:20;15.82;;;3.28;;
24161;SDS011;12318;51.262;7.066;2022-11-03T01:28:46;17.98;;;2.97;;
24161;SDS011;12318;51.262;7.066;2022-11-03T01:31:17;20.48;;;3.45;;
24161;SDS011;12318;51.262;7.066;2022-11-03T01:33:51;20.08;;;3.30;;
24161;SDS011;12318;51.262;7.066;2022-11-03T01:36:19;13.02;;;2.55;;
24161;SDS011;12318;51.262;7.066;2022-11-03T01:38:45;17.23;;;3.20;;
24161;SDS011;12318;51.262;7.066;2022-11-03T01:41:16;13.68;;;2.83;;
24161;SDS011;12318;51.262;7.066;2022-11-03T01:43:49;20.30;;;3.28;;
24161;SDS011;12318;51.262;7.066;2022-11-03T01:46:29;12.30;;;3.00;;
24161;SDS011;12318;51.262;7.066;2022-11-03T01:51:26;17.85;;;3.58;;
24161;SDS011;12318;51.262;7.066;2022-11-03T01:53:54;13.80;;;2.75;;
24161;SDS011;12318;51.262;7.066;2022-11-03T01:56:24;19.20;;;3.38;;
24161;SDS011;12318;51.262;7.066;2022-11-03T01:58:52;11.50;;;2.97;;
24161;SDS011;12318;51.262;7.066;2022-11-03T02:01:19;22.83;;;4.30;;
24161;SDS011;12318;51.262;7.066;2022-11-03T02:03:47;17.63;;;3.22;;
24161;SDS011;12318;51.262;7.066;2022-11-03T02:06:17;18.07;;;3.40;;
24161;SDS011;12318;51.262;7.066;2022-11-03T02:08:53;15.95;;;3.10;;
24161;SDS011;12318;51.262;7.066;2022-11-03T02:11:23;21.63;;;3.17;;
24161;SDS011;12318;51.262;7.066;2022-11-03T02:14:11;15.60;;;2.80;;
24161;SDS011;12318;51.262;7.066;2022-11-03T02:16:42;15.60;;;3.15;;
24161;SDS011;12318;51.262;7.066;2022-11-03T02:19:46;20.55;;;3.60;;
24161;SDS011;12318;51.262;7.066;2022-11-03T02:27:38;14.70;;;2.97;;
24161;SDS011;12318;51.262;7.066;2022-11-03T02:30:04;13.98;;;3.05;;
24161;SDS011;12318;51.262;7.066;2022-11-03T02:37:39;12.45;;;3.25;;
24161;SDS011;12318;51.262;7.066;2022-11-03T02:40:24;11.85;;;3.00;;
24161;SDS011;12318;51.262;7.066;2022-11-03T02:42:53;22.58;;;3.90;;
24161;SDS011;12318;51.262;7.066;2022-11-03T02:45:21;13.38;;;3.22;;
24161;SDS011;12318;51.262;7.066;2022-11-03T02:47:49;18.10;;;3.13;;
24161;SDS011;12318;51.262;7.066;2022-11-03T02:50:20;16.15;;;3.15;;
24161;SDS011;12318;51.262;7.066;2022-11-03T02:52:51;17.20;;;3.05;;
24161;SDS011;12318;51.262;7.066;2022-11-03T02:56:18;14.38;;;3.08;;
24161;SDS011;12318;51.262;7.066;2022-11-03T02:58:35;16.38;;;2.88;;
24161;SDS011;12318;51.262;7.066;2022-11-03T03:01:11;12.20;;;2.80;;
24161;SDS011;12318;51.262;7.066;2022-11-03T03:03:49;16.85;;;2.95;;
24161;SDS011;12318;51.262;7.066;2022-11-03T03:06:22;13.15;;;2.67;;
24161;SDS011;12318;51.262;7.066;2022-11-03T03:08:52;18.35;;;3.25;;
24161;SDS011;12318;51.262;7.066;2022-11-03T03:11:24;16.40;;;3.50;;
24161;SDS011;12318;51.262;7.066;2022-11-03T03:14:04;16.10;;;3.33;;
24161;SDS011;12318;51.262;7.066;2022-11-03T03:16:41;17.38;;;3.17;;
24161;SDS011;12318;51.262;7.066;2022-11-03T03:19:25;18.05;;;2.80;;
24161;SDS011;12318;51.262;7.066;2022-11-03T03:22:00;14.32;;;2.78;;
24161;SDS011;12318;51.262;7.066;2022-11-03T03:24:39;16.83;;;3.25;;
24161;SDS011;12318;51.262;7.066;2022-11-03T03:27:24;18.38;;;2.83;;
24161;SDS011;12318;51.262;7.066;2022-11-03T03:29:56;15.15;;;3.08;;
24161;SDS011;12318;51.262;7.066;2022-11-03T03:32:27;15.75;;;3.00;;
24161;SDS011;12318;51.262;7.066;2022-11-03T03:34:55;14.60;;;2.90;;
24161;SDS011;12318;51.262;7.066;2022-11-03T03:37:24;19.98;;;3.83;;
24161;SDS011;12318;51.262;7.066;2022-11-03T03:39:53;14.43;;;2.92;;
24161;SDS011;12318;51.262;7.066;2022-11-03T03:42:22;13.95;;;2.63;;
24161;SDS011;12318;51.262;7.066;2022-11-03T03:44:52;16.95;;;3.38;;
24161;SDS011;12318;51.262;7.066;2022-11-03T03:47:22;12.95;;;3.03;;
24161;SDS011;12318;51.262;7.066;2022-11-03T03:49:55;12.30;;;2.78;;
24161;SDS011;12318;51.262;7.066;2022-11-03T03:52:21;14.73;;;3.28;;
24161;SDS011;12318;51.262;7.066;2022-11-03T03:54:48;14.68;;;3.00;;
24161;SDS011;12318;51.262;7.066;2022-11-03T03:57:17;18.30;;;3.03;;
24161;SDS011;12318;51.262;7.066;2022-11-03T03:59:46;14.90;;;3.17;;
24161;SDS011;12318;51.262;7.066;2022-11-03T04:02:12;14.60;;;2.60;;
24161;SDS011;12318;51.262;7.066;2022-11-03T04:04:38;15.18;;;2.80;;
24161;SDS011;12318;51.262;7.066;2022-11-03T04:07:04;11.90;;;2.97;;
24161;SDS011;12318;51.262;7.066;2022-11-03T04:09:49;11.98;;;2.78;;
24161;SDS011;12318;51.262;7.066;2022-11-03T04:12:15;16.13;;;3.00;;
24161;SDS011;12318;51.262;7.066;2022-11-03T04:14:59;17.65;;;3.13;;
24161;SDS011;12318;51.262;7.066;2022-11-03T04:17:44;13.23;;;2.53;;
24161;SDS011;12318;51.262;7.066;2022-11-03T04:20:29;20.35;;;3.35;;
24161;SDS011;12318;51.262;7.066;2022-11-03T04:23:14;21.63;;;3.22;;
24161;SDS011;12318;51.262;7.066;2022-11-03T04:25:40;15.63;;;3.10;;
24161;SDS011;12318;51.262;7.066;2022-11-03T04:30:38;18.83;;;3.25;;
24161;SDS011;12318;51.262;7.066;2022-11-03T04:33:14;9.88;;;2.85;;
24161;SDS011;12318;51.262;7.066;2022-11-03T04:35:42;20.00;;;3.05;;
24161;SDS011;12318;51.262;7.066;2022-11-03T04:38:17;14.43;;;3.05;;
24161;SDS011;12318;51.262;7.066;2022-11-03T04:40:51;19.13;;;3.13;;
24161;SDS011;12318;51.262;7.066;2022-11-03T04:43:19;14.02;;;2.95;;
24161;SDS011;12318;51.262;7.066;2022-11-03T04:45:47;13.48;;;2.55;;
24161;SDS011;12318;51.262;7.066;2022-11-03T04:48:15;15.50;;;3.08;;
24161;SDS011;12318;51.262;7.066;2022-11-03T04:50:47;18.52;;;3.17;;
24161;SDS011;12318;51.262;7.066;2022-11-03T04:53:17;16.38;;;2.95;;
24161;SDS011;12318;51.262;7.066;2022-11-03T04:55:44;15.38;;;2.33;;
24161;SDS011;12318;51.262;7.066;2022-11-03T04:58:21;18.52;;;3.10;;
24161;SDS011;12318;51.262;7.066;2022-11-03T05:00:50;16.95;;;3.05;;
24161;SDS011;12318;51.262;7.066;2022-11-03T05:03:21;15.65;;;2.83;;
24161;SDS011;12318;51.262;7.066;2022-11-03T05:05:49;14.05;;;2.60;;
24161;SDS011;12318;51.262;7.066;2022-11-03T05:08:18;19.13;;;2.95;;
24161;SDS011;12318;51.262;7.066;2022-11-03T05:10:45;16.05;;;2.72;;
24161;SDS011;12318;51.262;7.066;2022-11-03T05:13:33;15.50;;;2.63;;
24161;SDS011;12318;51.262;7.066;2022-11-03T05:16:02;15.77;;;2.75;;
24161;SDS011;12318;51.262;7.066;2022-11-03T05:18:30;10.85;;;2.38;;
24161;SDS011;12318;51.262;7.066;2022-11-03T05:23:25;15.43;;;3.17;;
24161;SDS011;12318;51.262;7.066;2022-11-03T05:25:53;20.42;;;2.80;;
24161;SDS011;12318;51.262;7.066;2022-11-03T05:28:25;12.65;;;2.50;;
24161;SDS011;12318;51.262;7.066;2022-11-03T05:30:54;13.45;;;3.15;;
24161;SDS011;12318;51.262;7.066;2022-11-03T05:33:33;16.13;;;3.05;;
24161;SDS011;12318;51.262;7.066;2022-11-03T05:36:01;13.60;;;3.03;;
24161;SDS011;12318;51.262;7.066;2022-11-03T05:38:32;10.38;;;2.90;;
24161;SDS011;12318;51.262;7.066;2022-11-03T05:40:58;19.65;;;2.95;;
24161;SDS011;12318;51.262;7.066;2022-11-03T05:43:25;16.88;;;2.47;;
24161;SDS011;12318;51.262;7.066;2022-11-03T05:45:54;19.10;;;3.45;;
24161;SDS011;12318;51.262;7.066;2022-11-03T05:50:58;11.27;;;2.63;;
24161;SDS011;12318;51.262;7.066;2022-11-03T05:53:30;17.48;;;3.00;;
24161;SDS011;12318;51.262;7.066;2022-11-03T05:56:00;12.68;;;2.97;;
24161;SDS011;12318;51.262;7.066;2022-11-03T05:58:30;15.02;;;2.80;;
24161;SDS011;12318;51.262;7.066;2022-11-03T06:01:03;19.45;;;2.88;;
24161;SDS011;12318;51.262;7.066;2022-11-03T06:03:47;14.73;;;3.03;;
24161;SDS011;12318;51.262;7.066;2022-11-03T06:08:57;15.48;;;3.75;;
24161;SDS011;12318;51.262;7.066;2022-11-03T06:11:27;13.45;;;2.53;;
24161;SDS011;12318;51.262;7.066;2022-11-03T06:14:10;15.07;;;2.95;;
24161;SDS011;12318;51.262;7.066;2022-11-03T06:17:06;9.68;;;2.50;;
24161;SDS011;12318;51.262;7.066;2022-11-03T06:19:42;15.38;;;2.97;;
24161;SDS011;12318;51.262;7.066;2022-11-03T06:22:20;14.60;;;2.67;;
24161;SDS011;12318;51.262;7.066;2022-11-03T06:24:53;12.35;;;2.58;;
24161;SDS011;12318;51.262;7.066;2022-11-03T06:27:24;16.05;;;2.92;;
24161;SDS011;12318;51.262;7.066;2022-11-03T06:29:59;15.43;;;3.20;;
24161;SDS011;12318;51.262;7.066;2022-11-03T06:32:44;20.13;;;3.47;;
24161;SDS011;12318;51.262;7.066;2022-11-03T06:35:10;13.55;;;2.78;;
24161;SDS011;12318;51.262;7.066;2022-11-03T06:37:38;16.52;;;3.15;;
24161;SDS011;12318;51.262;7.066;2022-11-03T06:42:34;19.30;;;2.92;;
24161;SDS011;12318;51.262;7.066;2022-11-03T06:45:00;12.75;;;3.10;;
24161;SDS011;12318;51.262;7.066;2022-11-03T06:47:34;13.80;;;2.70;;
24161;SDS011;12318;51.262;7.066;2022-11-03T06:50:00;15.57;;;2.58;;
24161;SDS011;12318;51.262;7.066;2022-11-03T06:52:30;11.10;;;2.50;;
24161;SDS011;12318;51.262;7.066;2022-11-03T06:57:34;13.07;;;2.85;;
24161;SDS011;12318;51.262;7.066;2022-11-03T07:02:56;11.77;;;2.60;;
24161;SDS011;12318;51.262;7.066;2022-11-03T07:08:01;14.52;;;2.85;;
24161;SDS011;12318;51.262;7.066;2022-11-03T07:10:30;12.25;;;2.88;;
24161;SDS011;12318;51.262;7.066;2022-11-03T07:13:00;12.90;;;2.83;;
24161;SDS011;12318;51.262;7.066;2022-11-03T07:15:35;13.85;;;2.95;;
24161;SDS011;12318;51.262;7.066;2022-11-03T07:18:04;14.30;;;2.70;;
24161;SDS011;12318;51.262;7.066;2022-11-03T07:20:39;12.50;;;3.03;;
24161;SDS011;12318;51.262;7.066;2022-11-03T07:23:06;17.25;;;3.00;;
24161;SDS011;12318;51.262;7.066;2022-11-03T07:25:39;12.18;;;2.67;;
24161;SDS011;12318;51.262;7.066;2022-11-03T07:28:04;12.45;;;2.90;;
24161;SDS011;12318;51.262;7.066;2022-11-03T07:30:33;15.38;;;2.88;;
24161;SDS011;12318;51.262;7.066;2022-11-03T07:33:01;11.50;;;2.50;;
24161;SDS011;12318;51.262;7.066;2022-11-03T07:35:43;13.02;;;2.80;;
24161;SDS011;12318;51.262;7.066;2022-11-03T07:38:16;21.08;;;2.97;;
24161;SDS011;12318;51.262;7.066;2022-11-03T07:40:44;13.35;;;2.75;;
24161;SDS011;12318;51.262;7.066;2022-11-03T07:43:21;16.77;;;3.05;;
24161;SDS011;12318;51.262;7.066;2022-11-03T07:45:56;12.90;;;2.55;;
24161;SDS011;12318;51.262;7.066;2022-11-03T07:48:25;11.15;;;2.90;;
24161;SDS011;12318;51.262;7.066;2022-11-03T07:56:55;12.85;;;2.53;;
24161;SDS011;12318;51.262;7.066;2022-11-03T07:59:34;11.35;;;3.28;;
24161;SDS011;12318;51.262;7.066;2022-11-03T08:02:12;13.27;;;2.53;;
24161;SDS011;12318;51.262;7.066;2022-11-03T08:05:04;17.50;;;3.38;;
24161;SDS011;12318;51.262;7.066;2022-11-03T08:07:30;17.02;;;2.80;;
24161;SDS011;12318;51.262;7.066;2022-11-03T08:09:56;12.65;;;2.60;;
24161;SDS011;12318;51.262;7.066;2022-11-03T08:12:22;10.73;;;2.58;;
24161;SDS011;12318;51.262;7.066;2022-11-03T08:14:48;14.70;;;3.08;;
24161;SDS011;12318;51.262;7.066;2022-11-03T08:17:14;13.77;;;2.80;;
24161;SDS011;12318;51.262;7.066;2022-11-03T08:19:40;16.23;;;3.03;;
24161;SDS011;12318;51.262;7.066;2022-11-03T08:22:06;12.38;;;2.63;;
24161;SDS011;12318;51.262;7.066;2022-11-03T08:24:32;15.70;;;2.72;;
24161;SDS011;12318;51.262;7.066;2022-11-03T08:26:57;14.90;;;3.17;;
24161;SDS011;12318;51.262;7.066;2022-11-03T08:29:23;12.43;;;3.30;;
24161;SDS011;12318;51.262;7.066;2022-11-03T08:31:51;10.98;;;2.53;;
24161;SDS011;12318;51.262;7.066;2022-11-03T08:34:18;13.50;;;2.83;;
24161;SDS011;12318;51.262;7.066;2022-11-03T08:36:44;16.15;;;3.08;;
24161;SDS011;12318;51.262;7.066;2022-11-03T08:39:10;11.98;;;2.83;;
24161;SDS011;12318;51.262;7.066;2022-11-03T08:41:35;14.70;;;3.05;;
24161;SDS011;12318;51.262;7.066;2022-11-03T08:44:01;10.02;;;1.77;;
24161;SDS011;12318;51.262;7.066;2022-11-03T08:46:27;16.13;;;2.88;;
24161;SDS011;12318;51.262;7.066;2022-11-03T08:48:53;11.65;;;2.38;;
24161;SDS011;12318;51.262;7.066;2022-11-03T08:51:19;14.95;;;2.58;;
24161;SDS011;12318;51.262;7.066;2022-11-03T08:53:45;15.10;;;2.85;;
24161;SDS011;12318;51.262;7.066;2022-11-03T08:56:14;12.75;;;2.50;;
24161;SDS011;12318;51.262;7.066;2022-11-03T08:58:40;12.73;;;2.83;;
24161;SDS011;12318;51.262;7.066;2022-11-03T09:01:07;11.48;;;2.83;;
24161;SDS011;12318;51.262;7.066;2022-11-03T09:03:32;11.43;;;2.65;;
24161;SDS011;12318;51.262;7.066;2022-11-03T09:05:58;13.40;;;2.70;;
24161;SDS011;12318;51.262;7.066;2022-11-03T09:08:24;12.30;;;2.28;;
24161;SDS011;12318;51.262;7.066;2022-11-03T09:10:49;11.80;;;2.70;;
24161;SDS011;12318;51.262;7.066;2022-11-03T09:13:15;10.07;;;2.03;;
24161;SDS011;12318;51.262;7.066;2022-11-03T09:15:41;10.73;;;1.95;;
24161;SDS011;12318;51.262;7.066;2022-11-03T09:18:07;10.30;;;2.40;;
24161;SDS011;12318;51.262;7.066;2022-11-03T09:20:33;10.98;;;2.65;;
24161;SDS011;12318;51.262;7.066;2022-11-03T09:22:58;9.70;;;2.08;;
24161;SDS011;12318;51.262;7.066;2022-11-03T09:25:24;11.15;;;2.45;;
24161;SDS011;12318;51.262;7.066;2022-11-03T09:27:49;10.95;;;2.28;;
24161;SDS011;12318;51.262;7.066;2022-11-03T09:30:15;7.75;;;2.10;;
24161;SDS011;12318;51.262;7.066;2022-11-03T09:32:42;11.10;;;2.50;;
24161;SDS011;12318;51.262;7.066;2022-11-03T09:35:10;10.70;;;2.42;;
24161;SDS011;12318;51.262;7.066;2022-11-03T09:37:36;7.65;;;2.10;;
24161;SDS011;12318;51.262;7.066;2022-11-03T09:40:02;14.32;;;2.38;;
24161;SDS011;12318;51.262;7.066;2022-11-03T09:42:29;18.95;;;3.05;;
24161;SDS011;12318;51.262;7.066;2022-11-03T09:44:58;8.90;;;1.58;;
24161;SDS011;12318;51.262;7.066;2022-11-03T09:47:28;8.73;;;2.30;;
24161;SDS011;12318;51.262;7.066;2022-11-03T09:49:58;7.60;;;1.90;;
24161;SDS011;12318;51.262;7.066;2022-11-03T09:52:25;9.65;;;1.90;;
24161;SDS011;12318;51.262;7.066;2022-11-03T09:54:51;14.90;;;2.53;;
24161;SDS011;12318;51.262;7.066;2022-11-03T09:57:21;10.73;;;2.38;;
24161;SDS011;12318;51.262;7.066;2022-11-03T09:59:49;8.93;;;1.88;;
24161;SDS011;12318;51.262;7.066;2022-11-03T10:02:24;14.40;;;2.17;;
24161;SDS011;12318;51.262;7.066;2022-11-03T10:04:52;11.30;;;2.45;;
24161;SDS011;12318;51.262;7.066;2022-11-03T10:07:20;12.20;;;3.03;;
24161;SDS011;12318;51.262;7.066;2022-11-03T10:09:47;8.10;;;1.88;;
24161;SDS011;12318;51.262;7.066;2022-11-03T10:12:16;10.07;;;2.35;;
24161;SDS011;12318;51.262;7.066;2022-11-03T10:14:42;8.50;;;1.85;;
24161;SDS011;12318;51.262;7.066;2022-11-03T10:17:17;9.90;;;2.20;;
24161;SDS011;12318;51.262;7.066;2022-11-03T10:19:47;8.77;;;1.73;;
24161;SDS011;12318;51.262;7.066;2022-11-03T10:22:15;11.48;;;2.28;;
24161;SDS011;12318;51.262;7.066;2022-11-03T10:24:42;7.90;;;2.00;;
24161;SDS011;12318;51.262;7.066;2022-11-03T10:27:24;8.27;;;1.65;;
24161;SDS011;12318;51.262;7.066;2022-11-03T10:30:06;10.48;;;2.17;;
24161;SDS011;12318;51.262;7.066;2022-11-03T10:32:33;10.25;;;2.28;;
24161;SDS011;12318;51.262;7.066;2022-11-03T10:35:00;7.20;;;1.95;;
24161;SDS011;12318;51.262;7.066;2022-11-03T10:37:27;9.73;;;2.10;;
24161;SDS011;12318;51.262;7.066;2022-11-03T10:39:54;12.52;;;2.00;;
24161;SDS011;12318;51.262;7.066;2022-11-03T10:42:43;7.57;;;2.03;;
24161;SDS011;12318;51.262;7.066;2022-11-03T10:45:22;7.80;;;1.27;;
24161;SDS011;12318;51.262;7.066;2022-11-03T10:48:21;8.73;;;1.73;;
24161;SDS011;12318;51.262;7.066;2022-11-03T10:53:24;9.77;;;1.52;;
24161;SDS011;12318;51.262;7.066;2022-11-03T10:55:50;6.90;;;1.45;;
24161;SDS011;12318;51.262;7.066;2022-11-03T10:58:15;7.28;;;1.77;;
24161;SDS011;12318;51.262;7.066;2022-11-03T11:00:44;4.47;;;1.70;;
24161;SDS011;12318;51.262;7.066;2022-11-03T11:03:10;5.95;;;1.73;;
24161;SDS011;12318;51.262;7.066;2022-11-03T11:05:42;9.18;;;1.88;;
24161;SDS011;12318;51.262;7.066;2022-11-03T11:08:09;7.05;;;1.38;;
24161;SDS011;12318;51.262;7.066;2022-11-03T11:10:38;6.22;;;1.65;;
24161;SDS011;12318;51.262;7.066;2022-11-03T11:15:56;6.25;;;1.58;;
24161;SDS011;12318;51.262;7.066;2022-11-03T11:20:55;7.75;;;1.80;;
24161;SDS011;12318;51.262;7.066;2022-11-03T11:26:12;8.52;;;1.90;;
24161;SDS011;12318;51.262;7.066;2022-11-03T11:31:44;8.05;;;1.85;;
24161;SDS011;12318;51.262;7.066;2022-11-03T11:36:42;6.53;;;1.63;;
24161;SDS011;12318;51.262;7.066;2022-11-03T11:39:10;6.32;;;1.70;;
24161;SDS011;12318;51.262;7.066;2022-11-03T11:49:48;9.85;;;1.88;;
24161;SDS011;12318;51.262;7.066;2022-11-03T11:55:29;11.75;;;1.95;;
24161;SDS011;12318;51.262;7.066;2022-11-03T11:58:17;7.85;;;1.90;;
24161;SDS011;12318;51.262;7.066;2022-11-03T12:00:50;6.40;;;1.73;;
24161;SDS011;12318;51.262;7.066;2022-11-03T12:03:25;6.95;;;1.83;;
24161;SDS011;12318;51.262;7.066;2022-11-03T12:05:55;10.27;;;1.80;;
24161;SDS011;12318;51.262;7.066;2022-11-03T12:08:27;8.48;;;1.98;;
24161;SDS011;12318;51.262;7.066;2022-11-03T12:10:55;7.13;;;1.52;;
24161;SDS011;12318;51.262;7.066;2022-11-03T12:13:35;10.98;;;1.65;;
24161;SDS011;12318;51.262;7.066;2022-11-03T12:18:55;9.05;;;1.70;;
24161;SDS011;12318;51.262;7.066;2022-11-03T12:24:26;7.38;;;1.83;;
24161;SDS011;12318;51.262;7.066;2022-11-03T12:27:00;7.43;;;1.40;;
24161;SDS011;12318;51.262;7.066;2022-11-03T12:29:28;9.32;;;1.40;;
24161;SDS011;12318;51.262;7.066;2022-11-03T12:31:59;8.50;;;1.70;;
24161;SDS011;12318;51.262;7.066;2022-11-03T12:34:25;4.28;;;1.30;;
24161;SDS011;12318;51.262;7.066;2022-11-03T12:36:51;9.25;;;1.83;;
24161;SDS011;12318;51.262;7.066;2022-11-03T12:39:17;6.55;;;1.67;;
24161;SDS011;12318;51.262;7.066;2022-11-03T12:41:43;9.43;;;2.03;;
24161;SDS011;12318;51.262;7.066;2022-11-03T12:44:09;6.95;;;1.60;;
24161;SDS011;12318;51.262;7.066;2022-11-03T12:46:35;8.30;;;2.17;;
24161;SDS011;12318;51.262;7.066;2022-11-03T12:49:00;10.65;;;1.95;;
24161;SDS011;12318;51.262;7.066;2022-11-03T12:51:26;6.03;;;1.73;;
24161;SDS011;12318;51.262;7.066;2022-11-03T12:53:52;8.32;;;1.95;;
24161;SDS011;12318;51.262;7.066;2022-11-03T12:56:18;7.75;;;1.80;;
24161;SDS011;12318;51.262;7.066;2022-11-03T12:58:43;7.57;;;2.15;;
24161;SDS011;12318;51.262;7.066;2022-11-03T13:01:09;7.72;;;1.80;;
24161;SDS011;12318;51.262;7.066;2022-11-03T13:03:36;5.20;;;1.75;;
24161;SDS011;12318;51.262;7.066;2022-11-03T13:06:07;9.32;;;1.98;;
24161;SDS011;12318;51.262;7.066;2022-11-03T13:08:38;7.30;;;1.70;;
24161;SDS011;12318;51.262;7.066;2022-11-03T13:11:04;5.97;;;1.80;;
24161;SDS011;12318;51.262;7.066;2022-11-03T13:13:53;6.35;;;1.70;;
24161;SDS011;12318;51.262;7.066;2022-11-03T13:16:19;8.52;;;2.17;;
24161;SDS011;12318;51.262;7.066;2022-11-03T13:18:45;15.40;;;2.05;;
24161;SDS011;12318;51.262;7.066;2022-11-03T13:21:11;6.07;;;1.60;;
24161;SDS011;12318;51.262;7.066;2022-11-03T13:23:39;6.90;;;1.55;;
24161;SDS011;12318;51.262;7.066;2022-11-03T13:26:05;8.95;;;2.17;;
24161;SDS011;12318;51.262;7.066;2022-11-03T13:28:31;4.97;;;1.67;;
24161;SDS011;12318;51.262;7.066;2022-11-03T13:30:57;8.00;;;2.00;;
24161;SDS011;12318;51.262;7.066;2022-11-03T13:33:22;5.78;;;1.95;;
24161;SDS011;12318;51.262;7.066;2022-11-03T13:35:48;5.07;;;1.80;;
24161;SDS011;12318;51.262;7.066;2022-11-03T13:38:14;7.70;;;1.90;;
24161;SDS011;12318;51.262;7.066;2022-11-03T13:40:39;8.32;;;1.80;;
24161;SDS011;12318;51.262;7.066;2022-11-03T13:43:05;7.75;;;2.00;;
24161;SDS011;12318;51.262;7.066;2022-11-03T13:45:31;8.52;;;1.95;;
24161;SDS011;12318;51.262;7.066;2022-11-03T13:47:58;5.80;;;1.95;;
24161;SDS011;12318;51.262;7.066;2022-11-03T13:50:24;6.65;;;2.00;;
24161;SDS011;12318;51.262;7.066;2022-11-03T13:52:49;12.23;;;2.13;;
24161;SDS011;12318;51.262;7.066;2022-11-03T13:55:15;8.93;;;1.90;;
24161;SDS011;12318;51.262;7.066;2022-11-03T13:57:41;10.60;;;2.22;;
24161;SDS011;12318;51.262;7.066;2022-11-03T14:00:09;10.00;;;2.38;;
24161;SDS011;12318;51.262;7.066;2022-11-03T14:02:38;7.22;;;1.58;;
24161;SDS011;12318;51.262;7.066;2022-11-03T14:05:05;6.95;;;2.30;;
24161;SDS011;12318;51.262;7.066;2022-11-03T14:07:31;5.97;;;2.35;;
24161;SDS011;12318;51.262;7.066;2022-11-03T14:09:57;6.25;;;1.90;;
24161;SDS011;12318;51.262;7.066;2022-11-03T14:12:23;8.40;;;2.70;;
24161;SDS011;12318;51.262;7.066;2022-11-03T14:14:59;10.65;;;2.72;;
24161;SDS011;12318;51.262;7.066;2022-11-03T14:17:28;9.13;;;2.50;;
24161;SDS011;12318;51.262;7.066;2022-11-03T14:19:53;7.00;;;1.65;;
24161;SDS011;12318;51.262;7.066;2022-11-03T14:22:20;9.05;;;2.30;;
24161;SDS011;12318;51.262;7.066;2022-11-03T14:24:47;10.70;;;2.40;;
24161;SDS011;12318;51.262;7.066;2022-11-03T14:27:14;6.80;;;2.17;;
24161;SDS011;12318;51.262;7.066;2022-11-03T14:29:40;8.13;;;1.90;;
24161;SDS011;12318;51.262;7.066;2022-11-03T14:32:07;9.80;;;2.25;;
24161;SDS011;12318;51.262;7.066;2022-11-03T14:34:34;11.50;;;2.65;;
24161;SDS011;12318;51.262;7.066;2022-11-03T14:37:00;6.78;;;2.13;;
24161;SDS011;12318;51.262;7.066;2022-11-03T14:39:25;5.55;;;2.05;;
24161;SDS011;12318;51.262;7.066;2022-11-03T14:41:51;11.45;;;2.72;;
24161;SDS011;12318;51.262;7.066;2022-11-03T14:44:32;8.55;;;2.17;;
24161;SDS011;12318;51.262;7.066;2022-11-03T14:47:00;8.30;;;2.28;;
24161;SDS011;12318;51.262;7.066;2022-11-03T14:49:28;5.82;;;2.20;;
24161;SDS011;12318;51.262;7.066;2022-11-03T14:51:54;9.32;;;2.60;;
24161;SDS011;12318;51.262;7.066;2022-11-03T14:54:24;5.50;;;1.92;;
24161;SDS011;12318;51.262;7.066;2022-11-03T14:56:50;16.08;;;2.67;;
24161;SDS011;12318;51.262;7.066;2022-11-03T14:59:16;5.43;;;2.30;;
24161;SDS011;12318;51.262;7.066;2022-11-03T15:01:42;8.30;;;2.60;;
24161;SDS011;12318;51.262;7.066;2022-11-03T15:04:08;5.85;;;1.67;;
24161;SDS011;12318;51.262;7.066;2022-11-03T15:06:34;6.35;;;2.38;;
24161;SDS011;12318;51.262;7.066;2022-11-03T15:09:00;4.97;;;1.85;;
24161;SDS011;12318;51.262;7.066;2022-11-03T15:11:26;9.00;;;2.25;;
24161;SDS011;12318;51.262;7.066;2022-11-03T15:13:52;8.77;;;2.17;;
24161;SDS011;12318;51.262;7.066;2022-11-03T15:16:19;7.95;;;2.47;;
24161;SDS011;12318;51.262;7.066;2022-11-03T15:18:45;7.00;;;2.50;;
24161;SDS011;12318;51.262;7.066;2022-11-03T15:21:11;9.13;;;2.42;;
24161;SDS011;12318;51.262;7.066;2022-11-03T15:23:38;9.30;;;2.97;;
24161;SDS011;12318;51.262;7.066;2022-11-03T15:26:03;10.13;;;2.40;;
24161;SDS011;12318;51.262;7.066;2022-11-03T15:28:29;5.60;;;3.00;;
24161;SDS011;12318;51.262;7.066;2022-11-03T15:30:55;9.75;;;2.40;;
24161;SDS011;12318;51.262;7.066;2022-11-03T15:33:21;8.10;;;2.70;;
24161;SDS011;12318;51.262;7.066;2022-11-03T15:35:47;9.70;;;2.47;;
24161;SDS011;12318;51.262;7.066;2022-11-03T15:38:13;10.88;;;3.15;;
24161;SDS011;12318;51.262;7.066;2022-11-03T15:40:39;8.82;;;2.92;;
24161;SDS011;12318;51.262;7.066;2022-11-03T15:43:04;4.63;;;2.63;;
24161;SDS011;12318;51.262;7.066;2022-11-03T15:45:31;7.10;;;2.58;;
24161;SDS011;12318;51.262;7.066;2022-11-03T15:47:57;7.05;;;2.67;;
24161;SDS011;12318;51.262;7.066;2022-11-03T15:50:23;7.63;;;2.90;;
24161;SDS011;12318;51.262;7.066;2022-11-03T15:52:50;12.40;;;3.03;;
24161;SDS011;12318;51.262;7.066;2022-11-03T15:55:16;10.65;;;3.50;;
24161;SDS011;12318;51.262;7.066;2022-11-03T15:57:42;10.02;;;3.55;;
24161;SDS011;12318;51.262;7.066;2022-11-03T16:00:09;9.32;;;3.45;;
24161;SDS011;12318;51.262;7.066;2022-11-03T16:02:36;8.15;;;3.08;;
24161;SDS011;12318;51.262;7.066;2022-11-03T16:05:02;13.32;;;4.50;;
24161;SDS011;12318;51.262;7.066;2022-11-03T16:07:28;11.95;;;4.15;;
24161;SDS011;12318;51.262;7.066;2022-11-03T16:09:54;11.18;;;3.83;;
24161;SDS011;12318;51.262;7.066;2022-11-03T16:12:20;10.93;;;4.28;;
24161;SDS011;12318;51.262;7.066;2022-11-03T16:14:48;9.05;;;3.50;;